sensor_id;sensor_type;location;lat;lon;timestamp;temperature;humidity
4056;DHT22;2043;52.184;8.690;2023-02-28T00:00:37;-1.90;99.90
4056;DHT22;2043;52.184;8.690;2023-02-28T00:03:04;-1.90;99.90
4056;DHT22;2043;52.184;8.690;2023-02-28T00:10:30;-1.60;99.90
4056;DHT22;2043;52.184;8.690;2023-02-28T00:13:04;-1.50;99.90
4056;DHT22;2043;52.184;8.690;2023-02-28T00:15:31;-1.50;99.90
4056;DHT22;2043;52.184;8.690;2023-02-28T00:22:54;-1.70;99.90
4056;DHT22;2043;52.184;8.690;2023-02-28T00:25:23;-1.80;99.90
4056;DHT22;2043;52.184;8.690;2023-02-28T00:27:50;-1.90;99.90
4056;DHT22;2043;52.184;8.690;2023-02-28T00:30:19;-1.90;99.90
4056;DHT22;2043;52.184;8.690;2023-02-28T00:32:46;-1.90;99.90
4056;DHT22;2043;52.184;8.690;2023-02-28T00:35:14;-1.90;99.90
4056;DHT22;2043;52.184;8.690;2023-02-28T00:40:08;-2.00;99.90
4056;DHT22;2043;52.184;8.690;2023-02-28T00:42:36;-1.90;99.90
4056;DHT22;2043;52.184;8.690;2023-02-28T00:45:03;-1.80;99.90
4056;DHT22;2043;52.184;8.690;2023-02-28T00:47:31;-1.80;99.90
4056;DHT22;2043;52.184;8.690;2023-02-28T00:49:59;-1.90;99.90
4056;DHT22;2043;52.184;8.690;2023-02-28T00:57:21;-1.60;99.90
4056;DHT22;2043;52.184;8.690;2023-02-28T00:59:47;-1.50;99.90
4056;DHT22;2043;52.184;8.690;2023-02-28T01:09:36;-1.50;99.90
4056;DHT22;2043;52.184;8.690;2023-02-28T01:12:03;-1.50;99.90
4056;DHT22;2043;52.184;8.690;2023-02-28T01:14:29;-1.50;99.90
4056;DHT22;2043;52.184;8.690;2023-02-28T01:24:18;-1.60;99.90
4056;DHT22;2043;52.184;8.690;2023-02-28T01:39:00;-1.80;99.90
4056;DHT22;2043;52.184;8.690;2023-02-28T01:41:30;-1.70;99.90
4056;DHT22;2043;52.184;8.690;2023-02-28T01:54:28;-1.20;99.90
4056;DHT22;2043;52.184;8.690;2023-02-28T01:57:07;-1.20;99.90
4056;DHT22;2043;52.184;8.690;2023-02-28T01:59:43;-1.20;99.90
4056;DHT22;2043;52.184;8.690;2023-02-28T02:02:20;-1.20;99.90
4056;DHT22;2043;52.184;8.690;2023-02-28T02:04:56;-1.20;99.90
4056;DHT22;2043;52.184;8.690;2023-02-28T02:07:26;-1.20;99.90
4056;DHT22;2043;52.184;8.690;2023-02-28T02:10:17;-1.40;99.90
4056;DHT22;2043;52.184;8.690;2023-02-28T02:21:47;-2.10;99.90
4056;DHT22;2043;52.184;8.690;2023-02-28T02:24:40;-2.20;99.90
4056;DHT22;2043;52.184;8.690;2023-02-28T02:30:41;-2.20;99.90
4056;DHT22;2043;52.184;8.690;2023-02-28T02:35:55;-1.90;99.90
4056;DHT22;2043;52.184;8.690;2023-02-28T02:38:37;-1.90;99.90
4056;DHT22;2043;52.184;8.690;2023-02-28T02:41:16;-2.00;99.90
4056;DHT22;2043;52.184;8.690;2023-02-28T02:46:21;-2.00;99.90
4056;DHT22;2043;52.184;8.690;2023-02-28T02:48:50;-1.90;99.90
4056;DHT22;2043;52.184;8.690;2023-02-28T02:51:22;-1.90;99.90
4056;DHT22;2043;52.184;8.690;2023-02-28T02:53:59;-1.80;99.90
4056;DHT22;2043;52.184;8.690;2023-02-28T02:56:30;-1.90;99.90
4056;DHT22;2043;52.184;8.690;2023-02-28T02:59:03;-1.80;99.90
4056;DHT22;2043;52.184;8.690;2023-02-28T03:01:31;-1.90;99.90
4056;DHT22;2043;52.184;8.690;2023-02-28T03:04:05;-1.90;99.90
4056;DHT22;2043;52.184;8.690;2023-02-28T03:06:33;-1.90;99.90
4056;DHT22;2043;52.184;8.690;2023-02-28T03:09:02;-2.00;99.90
4056;DHT22;2043;52.184;8.690;2023-02-28T03:11:29;-2.00;99.90
4056;DHT22;2043;52.184;8.690;2023-02-28T03:23:19;-2.10;99.90
4056;DHT22;2043;52.184;8.690;2023-02-28T03:25:58;-2.10;99.90
4056;DHT22;2043;52.184;8.690;2023-02-28T03:31:41;-2.40;99.90
4056;DHT22;2043;52.184;8.690;2023-02-28T03:36:39;-2.70;99.90
4056;DHT22;2043;52.184;8.690;2023-02-28T03:39:20;-2.70;99.90
4056;DHT22;2043;52.184;8.690;2023-02-28T03:44:21;-2.70;99.90
4056;DHT22;2043;52.184;8.690;2023-02-28T03:47:02;-2.70;99.90
4056;DHT22;2043;52.184;8.690;2023-02-28T03:49:46;-2.80;99.90
4056;DHT22;2043;52.184;8.690;2023-02-28T03:52:17;-2.80;99.90
4056;DHT22;2043;52.184;8.690;2023-02-28T03:54:48;-2.80;99.90
4056;DHT22;2043;52.184;8.690;2023-02-28T03:57:53;-2.70;99.90
4056;DHT22;2043;52.184;8.690;2023-02-28T04:02:56;-2.90;99.90
4056;DHT22;2043;52.184;8.690;2023-02-28T04:05:24;-3.00;99.90
4056;DHT22;2043;52.184;8.690;2023-02-28T04:10:18;-3.00;99.90
4056;DHT22;2043;52.184;8.690;2023-02-28T04:15:12;-3.00;99.90
4056;DHT22;2043;52.184;8.690;2023-02-28T04:20:06;-3.10;99.90
4056;DHT22;2043;52.184;8.690;2023-02-28T04:22:36;-3.20;99.90
4056;DHT22;2043;52.184;8.690;2023-02-28T04:25:04;-3.30;99.90
4056;DHT22;2043;52.184;8.690;2023-02-28T04:27:32;-3.20;99.90
4056;DHT22;2043;52.184;8.690;2023-02-28T04:29:59;-3.20;99.90
4056;DHT22;2043;52.184;8.690;2023-02-28T05:00:19;-3.60;99.90
4056;DHT22;2043;52.184;8.690;2023-02-28T05:07:45;-3.50;99.90
4056;DHT22;2043;52.184;8.690;2023-02-28T05:15:07;-3.40;99.90
4056;DHT22;2043;52.184;8.690;2023-02-28T05:22:41;-3.80;99.90
4056;DHT22;2043;52.184;8.690;2023-02-28T05:25:11;-3.80;99.90
4056;DHT22;2043;52.184;8.690;2023-02-28T05:30:07;-3.90;99.90
4056;DHT22;2043;52.184;8.690;2023-02-28T05:32:37;-4.00;99.90
4056;DHT22;2043;52.184;8.690;2023-02-28T05:35:04;-4.10;99.90
4056;DHT22;2043;52.184;8.690;2023-02-28T05:37:31;-4.10;99.90
4056;DHT22;2043;52.184;8.690;2023-02-28T05:59:49;-4.10;99.90
4056;DHT22;2043;52.184;8.690;2023-02-28T06:02:17;-4.10;99.90
4056;DHT22;2043;52.184;8.690;2023-02-28T06:04:44;-4.20;99.90
4056;DHT22;2043;52.184;8.690;2023-02-28T06:07:11;-4.20;99.90
4056;DHT22;2043;52.184;8.690;2023-02-28T06:09:38;-4.20;99.90
4056;DHT22;2043;52.184;8.690;2023-02-28T06:12:06;-4.20;99.90
4056;DHT22;2043;52.184;8.690;2023-02-28T06:14:33;-4.20;99.90
4056;DHT22;2043;52.184;8.690;2023-02-28T06:17:01;-4.10;99.90
4056;DHT22;2043;52.184;8.690;2023-02-28T06:19:28;-4.20;99.90
4056;DHT22;2043;52.184;8.690;2023-02-28T06:21:56;-4.20;99.90
4056;DHT22;2043;52.184;8.690;2023-02-28T06:24:24;-4.20;99.90
4056;DHT22;2043;52.184;8.690;2023-02-28T06:26:54;-4.10;99.90
4056;DHT22;2043;52.184;8.690;2023-02-28T06:34:16;-3.90;99.90
4056;DHT22;2043;52.184;8.690;2023-02-28T06:36:43;-3.90;99.90
4056;DHT22;2043;52.184;8.690;2023-02-28T06:39:10;-3.80;99.90
4056;DHT22;2043;52.184;8.690;2023-02-28T06:46:47;-3.60;99.90
4056;DHT22;2043;52.184;8.690;2023-02-28T06:49:15;-3.70;99.90
4056;DHT22;2043;52.184;8.690;2023-02-28T06:51:43;-3.90;99.90
4056;DHT22;2043;52.184;8.690;2023-02-28T06:54:13;-3.90;99.90
4056;DHT22;2043;52.184;8.690;2023-02-28T07:04:02;-3.70;99.90
4056;DHT22;2043;52.184;8.690;2023-02-28T07:08:55;-3.50;99.90
4056;DHT22;2043;52.184;8.690;2023-02-28T07:11:24;-3.10;99.90
4056;DHT22;2043;52.184;8.690;2023-02-28T07:13:56;-1.90;99.90
4056;DHT22;2043;52.184;8.690;2023-02-28T07:16:24;-0.50;99.90
4056;DHT22;2043;52.184;8.690;2023-02-28T07:18:55;0.80;98.50
4056;DHT22;2043;52.184;8.690;2023-02-28T07:21:22;1.90;93.80
4056;DHT22;2043;52.184;8.690;2023-02-28T07:23:49;2.60;91.20
4056;DHT22;2043;52.184;8.690;2023-02-28T07:26:18;3.40;89.20
4056;DHT22;2043;52.184;8.690;2023-02-28T07:28:46;4.30;87.10
4056;DHT22;2043;52.184;8.690;2023-02-28T07:31:15;4.80;84.70
4056;DHT22;2043;52.184;8.690;2023-02-28T07:33:42;5.10;83.50
4056;DHT22;2043;52.184;8.690;2023-02-28T07:36:12;5.60;82.60
4056;DHT22;2043;52.184;8.690;2023-02-28T07:38:42;6.00;81.80
4056;DHT22;2043;52.184;8.690;2023-02-28T07:41:15;6.60;81.40
4056;DHT22;2043;52.184;8.690;2023-02-28T07:43:42;6.90;80.40
4056;DHT22;2043;52.184;8.690;2023-02-28T07:46:10;7.20;79.80
4056;DHT22;2043;52.184;8.690;2023-02-28T07:48:38;7.40;79.10
4056;DHT22;2043;52.184;8.690;2023-02-28T07:51:05;7.50;79.00
4056;DHT22;2043;52.184;8.690;2023-02-28T07:53:32;7.50;79.30
4056;DHT22;2043;52.184;8.690;2023-02-28T07:56:01;7.60;79.00
4056;DHT22;2043;52.184;8.690;2023-02-28T07:58:29;7.50;79.00
4056;DHT22;2043;52.184;8.690;2023-02-28T08:00:56;7.80;79.10
4056;DHT22;2043;52.184;8.690;2023-02-28T08:03:24;8.10;78.30
4056;DHT22;2043;52.184;8.690;2023-02-28T08:05:51;8.50;78.40
4056;DHT22;2043;52.184;8.690;2023-02-28T08:08:19;8.90;77.00
4056;DHT22;2043;52.184;8.690;2023-02-28T08:10:45;9.20;76.20
4056;DHT22;2043;52.184;8.690;2023-02-28T08:13:12;9.10;76.30
4056;DHT22;2043;52.184;8.690;2023-02-28T08:15:41;9.40;76.90
4056;DHT22;2043;52.184;8.690;2023-02-28T08:18:09;9.80;75.80
4056;DHT22;2043;52.184;8.690;2023-02-28T08:20:36;9.90;75.10
4056;DHT22;2043;52.184;8.690;2023-02-28T08:23:03;9.80;75.20
4056;DHT22;2043;52.184;8.690;2023-02-28T08:25:30;9.80;75.20
4056;DHT22;2043;52.184;8.690;2023-02-28T08:27:56;9.50;75.70
4056;DHT22;2043;52.184;8.690;2023-02-28T08:30:23;9.50;75.40
4056;DHT22;2043;52.184;8.690;2023-02-28T08:32:50;9.50;75.20
4056;DHT22;2043;52.184;8.690;2023-02-28T08:35:17;10.30;74.10
4056;DHT22;2043;52.184;8.690;2023-02-28T08:37:44;10.40;73.10
4056;DHT22;2043;52.184;8.690;2023-02-28T08:40:11;10.60;72.50
4056;DHT22;2043;52.184;8.690;2023-02-28T08:42:45;10.80;72.00
4056;DHT22;2043;52.184;8.690;2023-02-28T08:45:13;10.80;71.20
4056;DHT22;2043;52.184;8.690;2023-02-28T08:47:40;10.90;71.00
4056;DHT22;2043;52.184;8.690;2023-02-28T08:50:07;10.90;70.70
4056;DHT22;2043;52.184;8.690;2023-02-28T08:52:34;10.90;70.80
4056;DHT22;2043;52.184;8.690;2023-02-28T08:55:01;10.90;70.30
4056;DHT22;2043;52.184;8.690;2023-02-28T08:57:28;10.90;70.30
4056;DHT22;2043;52.184;8.690;2023-02-28T08:59:55;11.40;69.60
4056;DHT22;2043;52.184;8.690;2023-02-28T09:02:22;11.30;69.70
4056;DHT22;2043;52.184;8.690;2023-02-28T09:04:48;11.30;69.70
4056;DHT22;2043;52.184;8.690;2023-02-28T09:07:15;12.00;67.30
4056;DHT22;2043;52.184;8.690;2023-02-28T09:09:42;12.00;67.20
4056;DHT22;2043;52.184;8.690;2023-02-28T09:12:22;12.20;66.90
4056;DHT22;2043;52.184;8.690;2023-02-28T09:14:48;12.00;66.30
4056;DHT22;2043;52.184;8.690;2023-02-28T09:17:15;11.90;65.90
4056;DHT22;2043;52.184;8.690;2023-02-28T09:19:42;12.30;64.00
4056;DHT22;2043;52.184;8.690;2023-02-28T09:22:10;12.10;63.80
4056;DHT22;2043;52.184;8.690;2023-02-28T09:24:38;12.00;63.90
4056;DHT22;2043;52.184;8.690;2023-02-28T09:27:06;12.00;64.10
4056;DHT22;2043;52.184;8.690;2023-02-28T09:29:34;12.30;64.20
4056;DHT22;2043;52.184;8.690;2023-02-28T09:32:01;12.40;64.00
4056;DHT22;2043;52.184;8.690;2023-02-28T09:34:28;12.00;64.00
4056;DHT22;2043;52.184;8.690;2023-02-28T09:36:58;12.10;64.00
4056;DHT22;2043;52.184;8.690;2023-02-28T09:39:25;12.00;64.10
4056;DHT22;2043;52.184;8.690;2023-02-28T09:41:54;11.60;64.70
4056;DHT22;2043;52.184;8.690;2023-02-28T09:44:29;11.60;64.70
4056;DHT22;2043;52.184;8.690;2023-02-28T09:47:29;11.90;64.50
4056;DHT22;2043;52.184;8.690;2023-02-28T09:49:59;11.80;64.20
4056;DHT22;2043;52.184;8.690;2023-02-28T09:52:31;11.80;63.60
4056;DHT22;2043;52.184;8.690;2023-02-28T09:57:58;12.20;64.00
4056;DHT22;2043;52.184;8.690;2023-02-28T10:00:33;12.20;62.90
4056;DHT22;2043;52.184;8.690;2023-02-28T10:03:25;12.20;62.40
4056;DHT22;2043;52.184;8.690;2023-02-28T10:06:14;11.80;62.90
4056;DHT22;2043;52.184;8.690;2023-02-28T10:09:02;11.90;62.90
4056;DHT22;2043;52.184;8.690;2023-02-28T10:11:32;11.80;62.90
4056;DHT22;2043;52.184;8.690;2023-02-28T10:14:04;11.80;63.10
4056;DHT22;2043;52.184;8.690;2023-02-28T10:19:27;11.80;62.60
4056;DHT22;2043;52.184;8.690;2023-02-28T10:22:11;12.30;63.20
4056;DHT22;2043;52.184;8.690;2023-02-28T10:24:53;12.30;63.00
4056;DHT22;2043;52.184;8.690;2023-02-28T10:27:25;12.10;62.80
4056;DHT22;2043;52.184;8.690;2023-02-28T10:29:56;11.70;62.50
4056;DHT22;2043;52.184;8.690;2023-02-28T10:32:26;11.70;62.70
4056;DHT22;2043;52.184;8.690;2023-02-28T10:37:27;11.40;62.90
4056;DHT22;2043;52.184;8.690;2023-02-28T10:39:54;10.70;64.70
4056;DHT22;2043;52.184;8.690;2023-02-28T10:42:28;10.40;65.40
4056;DHT22;2043;52.184;8.690;2023-02-28T10:45:14;10.60;64.90
4056;DHT22;2043;52.184;8.690;2023-02-28T10:47:59;9.70;65.40
4056;DHT22;2043;52.184;8.690;2023-02-28T10:52:54;9.00;67.20
4056;DHT22;2043;52.184;8.690;2023-02-28T10:55:25;9.00;68.00
4056;DHT22;2043;52.184;8.690;2023-02-28T10:57:52;9.00;67.60
4056;DHT22;2043;52.184;8.690;2023-02-28T11:00:24;8.80;69.00
4056;DHT22;2043;52.184;8.690;2023-02-28T11:02:54;8.90;67.80
4056;DHT22;2043;52.184;8.690;2023-02-28T11:05:31;9.60;67.50
4056;DHT22;2043;52.184;8.690;2023-02-28T11:08:17;9.70;66.50
4056;DHT22;2043;52.184;8.690;2023-02-28T11:10:56;9.60;66.70
4056;DHT22;2043;52.184;8.690;2023-02-28T11:13:35;9.50;67.60
4056;DHT22;2043;52.184;8.690;2023-02-28T11:16:07;9.20;67.80
4056;DHT22;2043;52.184;8.690;2023-02-28T11:18:53;9.70;67.30
4056;DHT22;2043;52.184;8.690;2023-02-28T11:21:26;9.90;66.60
4056;DHT22;2043;52.184;8.690;2023-02-28T11:24:02;9.40;67.00
4056;DHT22;2043;52.184;8.690;2023-02-28T11:26:45;9.10;67.60
4056;DHT22;2043;52.184;8.690;2023-02-28T11:29:30;8.30;67.80
4056;DHT22;2043;52.184;8.690;2023-02-28T11:34:41;8.60;68.50
4056;DHT22;2043;52.184;8.690;2023-02-28T11:37:14;8.50;68.60
4056;DHT22;2043;52.184;8.690;2023-02-28T11:39:43;8.40;70.00
4056;DHT22;2043;52.184;8.690;2023-02-28T11:56:05;9.10;66.70
4056;DHT22;2043;52.184;8.690;2023-02-28T12:01:42;9.20;67.50
4056;DHT22;2043;52.184;8.690;2023-02-28T12:10:17;9.70;66.00
4056;DHT22;2043;52.184;8.690;2023-02-28T12:27:19;8.70;67.40
4056;DHT22;2043;52.184;8.690;2023-02-28T12:29:58;8.70;68.10
4056;DHT22;2043;52.184;8.690;2023-02-28T12:32:35;8.90;68.00
4056;DHT22;2043;52.184;8.690;2023-02-28T12:35:11;8.80;67.30
4056;DHT22;2043;52.184;8.690;2023-02-28T12:42:44;8.50;67.80
4056;DHT22;2043;52.184;8.690;2023-02-28T12:45:24;8.60;67.60
4056;DHT22;2043;52.184;8.690;2023-02-28T12:48:00;8.80;67.10
4056;DHT22;2043;52.184;8.690;2023-02-28T12:50:28;8.60;67.30
4056;DHT22;2043;52.184;8.690;2023-02-28T12:53:09;8.30;67.40
4056;DHT22;2043;52.184;8.690;2023-02-28T13:09:20;7.30;68.70
4056;DHT22;2043;52.184;8.690;2023-02-28T13:11:49;6.80;68.80
4056;DHT22;2043;52.184;8.690;2023-02-28T13:14:27;6.70;70.10
4056;DHT22;2043;52.184;8.690;2023-02-28T13:22:47;7.50;69.50
4056;DHT22;2043;52.184;8.690;2023-02-28T13:28:01;7.80;69.20
4056;DHT22;2043;52.184;8.690;2023-02-28T13:33:36;8.20;69.40
4056;DHT22;2043;52.184;8.690;2023-02-28T13:38:53;8.30;69.30
4056;DHT22;2043;52.184;8.690;2023-02-28T13:46:32;8.20;70.10
4056;DHT22;2043;52.184;8.690;2023-02-28T13:49:28;8.30;70.20
4056;DHT22;2043;52.184;8.690;2023-02-28T14:02:44;8.70;69.30
4056;DHT22;2043;52.184;8.690;2023-02-28T14:05:20;8.70;68.40
4056;DHT22;2043;52.184;8.690;2023-02-28T14:08:15;8.90;68.50
4056;DHT22;2043;52.184;8.690;2023-02-28T14:10:46;8.80;68.30
4056;DHT22;2043;52.184;8.690;2023-02-28T14:16:03;9.00;68.60
4056;DHT22;2043;52.184;8.690;2023-02-28T14:18:34;8.90;67.70
4056;DHT22;2043;52.184;8.690;2023-02-28T14:24:16;8.90;69.50
4056;DHT22;2043;52.184;8.690;2023-02-28T14:27:01;8.90;68.60
4056;DHT22;2043;52.184;8.690;2023-02-28T14:33:01;8.90;67.90
4056;DHT22;2043;52.184;8.690;2023-02-28T14:35:50;9.00;68.20
4056;DHT22;2043;52.184;8.690;2023-02-28T14:38:25;8.90;68.00
4056;DHT22;2043;52.184;8.690;2023-02-28T14:40:57;8.60;68.80
4056;DHT22;2043;52.184;8.690;2023-02-28T14:43:26;8.30;69.60
4056;DHT22;2043;52.184;8.690;2023-02-28T14:46:01;8.20;70.20
4056;DHT22;2043;52.184;8.690;2023-02-28T14:48:29;8.20;70.40
4056;DHT22;2043;52.184;8.690;2023-02-28T14:51:00;8.30;70.30
4056;DHT22;2043;52.184;8.690;2023-02-28T14:53:29;8.50;70.50
4056;DHT22;2043;52.184;8.690;2023-02-28T14:55:57;8.40;69.80
4056;DHT22;2043;52.184;8.690;2023-02-28T14:58:29;8.10;70.40
4056;DHT22;2043;52.184;8.690;2023-02-28T15:01:02;8.00;71.00
4056;DHT22;2043;52.184;8.690;2023-02-28T15:06:01;8.00;71.40
4056;DHT22;2043;52.184;8.690;2023-02-28T15:11:00;8.00;70.80
4056;DHT22;2043;52.184;8.690;2023-02-28T15:13:40;7.90;71.20
4056;DHT22;2043;52.184;8.690;2023-02-28T15:16:14;7.80;71.20
4056;DHT22;2043;52.184;8.690;2023-02-28T15:18:58;7.90;71.80
4056;DHT22;2043;52.184;8.690;2023-02-28T15:21:38;8.00;71.60
4056;DHT22;2043;52.184;8.690;2023-02-28T15:24:30;8.10;71.40
4056;DHT22;2043;52.184;8.690;2023-02-28T15:27:02;7.90;71.20
4056;DHT22;2043;52.184;8.690;2023-02-28T15:29:33;7.80;71.60
4056;DHT22;2043;52.184;8.690;2023-02-28T15:32:05;7.70;71.80
4056;DHT22;2043;52.184;8.690;2023-02-28T15:34:44;7.90;72.10
4056;DHT22;2043;52.184;8.690;2023-02-28T15:40:26;7.70;71.70
4056;DHT22;2043;52.184;8.690;2023-02-28T15:43:14;7.60;71.40
4056;DHT22;2043;52.184;8.690;2023-02-28T15:45:50;7.60;71.70
4056;DHT22;2043;52.184;8.690;2023-02-28T15:50:55;7.50;72.30
4056;DHT22;2043;52.184;8.690;2023-02-28T15:53:30;7.40;73.00
4056;DHT22;2043;52.184;8.690;2023-02-28T15:56:01;7.30;73.50
4056;DHT22;2043;52.184;8.690;2023-02-28T15:58:29;7.30;72.70
4056;DHT22;2043;52.184;8.690;2023-02-28T16:01:24;7.20;72.50
4056;DHT22;2043;52.184;8.690;2023-02-28T16:03:54;6.90;73.10
4056;DHT22;2043;52.184;8.690;2023-02-28T16:06:26;6.80;73.50
4056;DHT22;2043;52.184;8.690;2023-02-28T16:11:24;6.70;74.00
4056;DHT22;2043;52.184;8.690;2023-02-28T16:13:52;6.60;74.20
4056;DHT22;2043;52.184;8.690;2023-02-28T16:16:21;6.50;74.60
4056;DHT22;2043;52.184;8.690;2023-02-28T16:18:49;6.50;74.70
4056;DHT22;2043;52.184;8.690;2023-02-28T16:21:16;6.40;74.50
4056;DHT22;2043;52.184;8.690;2023-02-28T16:23:43;6.40;74.90
4056;DHT22;2043;52.184;8.690;2023-02-28T16:26:21;6.40;74.90
4056;DHT22;2043;52.184;8.690;2023-02-28T16:28:49;6.30;74.90
4056;DHT22;2043;52.184;8.690;2023-02-28T16:31:16;6.10;75.30
4056;DHT22;2043;52.184;8.690;2023-02-28T16:33:44;6.10;75.60
4056;DHT22;2043;52.184;8.690;2023-02-28T16:36:22;5.90;75.90
4056;DHT22;2043;52.184;8.690;2023-02-28T16:41:20;5.80;76.50
4056;DHT22;2043;52.184;8.690;2023-02-28T16:43:50;5.70;77.20
4056;DHT22;2043;52.184;8.690;2023-02-28T16:46:18;5.70;77.00
4056;DHT22;2043;52.184;8.690;2023-02-28T16:48:46;5.60;77.60
4056;DHT22;2043;52.184;8.690;2023-02-28T16:51:15;5.50;77.70
4056;DHT22;2043;52.184;8.690;2023-02-28T16:53:44;5.40;78.40
4056;DHT22;2043;52.184;8.690;2023-02-28T16:56:22;5.30;78.80
4056;DHT22;2043;52.184;8.690;2023-02-28T16:58:50;5.20;79.30
4056;DHT22;2043;52.184;8.690;2023-02-28T17:01:18;5.20;79.90
4056;DHT22;2043;52.184;8.690;2023-02-28T17:06:24;5.10;80.10
4056;DHT22;2043;52.184;8.690;2023-02-28T17:08:52;5.00;80.10
4056;DHT22;2043;52.184;8.690;2023-02-28T17:11:19;4.90;80.10
4056;DHT22;2043;52.184;8.690;2023-02-28T17:13:46;4.90;80.40
4056;DHT22;2043;52.184;8.690;2023-02-28T17:16:30;4.80;80.50
4056;DHT22;2043;52.184;8.690;2023-02-28T17:19:00;4.70;81.20
4056;DHT22;2043;52.184;8.690;2023-02-28T17:21:28;4.70;81.00
4056;DHT22;2043;52.184;8.690;2023-02-28T17:23:55;4.70;81.10
4056;DHT22;2043;52.184;8.690;2023-02-28T17:26:22;4.60;81.50
4056;DHT22;2043;52.184;8.690;2023-02-28T17:28:51;4.50;81.70
4056;DHT22;2043;52.184;8.690;2023-02-28T17:36:14;4.20;82.50
4056;DHT22;2043;52.184;8.690;2023-02-28T17:41:12;4.00;83.30
4056;DHT22;2043;52.184;8.690;2023-02-28T17:43:39;3.90;84.40
4056;DHT22;2043;52.184;8.690;2023-02-28T17:46:11;3.70;84.80
4056;DHT22;2043;52.184;8.690;2023-02-28T17:51:11;3.20;86.10
4056;DHT22;2043;52.184;8.690;2023-02-28T17:53:38;3.00;86.20
4056;DHT22;2043;52.184;8.690;2023-02-28T17:56:09;2.70;87.00
4056;DHT22;2043;52.184;8.690;2023-02-28T18:01:04;2.20;89.00
4056;DHT22;2043;52.184;8.690;2023-02-28T18:05:59;1.80;90.40
4056;DHT22;2043;52.184;8.690;2023-02-28T18:10:53;1.60;92.00
4056;DHT22;2043;52.184;8.690;2023-02-28T18:33:00;0.90;94.10
4056;DHT22;2043;52.184;8.690;2023-02-28T18:35:28;0.80;94.60
4056;DHT22;2043;52.184;8.690;2023-02-28T18:40:30;0.70;95.10
4056;DHT22;2043;52.184;8.690;2023-02-28T18:57:45;0.50;97.10
4056;DHT22;2043;52.184;8.690;2023-02-28T19:00:14;0.70;96.70
4056;DHT22;2043;52.184;8.690;2023-02-28T19:02:41;0.80;96.10
4056;DHT22;2043;52.184;8.690;2023-02-28T19:05:08;0.80;96.00
4056;DHT22;2043;52.184;8.690;2023-02-28T19:07:37;0.80;96.00
4056;DHT22;2043;52.184;8.690;2023-02-28T19:10:05;0.70;96.00
4056;DHT22;2043;52.184;8.690;2023-02-28T19:12:35;0.70;96.30
4056;DHT22;2043;52.184;8.690;2023-02-28T19:15:04;0.70;96.10
4056;DHT22;2043;52.184;8.690;2023-02-28T19:17:31;0.50;96.00
4056;DHT22;2043;52.184;8.690;2023-02-28T19:27:20;0.00;97.50
4056;DHT22;2043;52.184;8.690;2023-02-28T19:29:47;-0.10;97.50
4056;DHT22;2043;52.184;8.690;2023-02-28T19:32:15;-0.10;97.60
4056;DHT22;2043;52.184;8.690;2023-02-28T19:34:42;-0.20;98.00
4056;DHT22;2043;52.184;8.690;2023-02-28T19:37:09;-0.20;97.90
4056;DHT22;2043;52.184;8.690;2023-02-28T19:49:29;-0.40;98.90
4056;DHT22;2043;52.184;8.690;2023-02-28T19:54:24;-0.40;98.90
4056;DHT22;2043;52.184;8.690;2023-02-28T19:56:51;-0.40;98.80
4056;DHT22;2043;52.184;8.690;2023-02-28T20:02:16;-0.60;99.30
4056;DHT22;2043;52.184;8.690;2023-02-28T20:04:46;-0.80;99.00
4056;DHT22;2043;52.184;8.690;2023-02-28T20:07:15;-0.90;99.70
4056;DHT22;2043;52.184;8.690;2023-02-28T20:12:10;-1.00;99.90
4056;DHT22;2043;52.184;8.690;2023-02-28T20:19:44;-0.90;99.90
4056;DHT22;2043;52.184;8.690;2023-02-28T20:29:33;-1.00;99.90
4056;DHT22;2043;52.184;8.690;2023-02-28T20:32:00;-1.00;99.90
4056;DHT22;2043;52.184;8.690;2023-02-28T20:36:54;-0.90;99.90
4056;DHT22;2043;52.184;8.690;2023-02-28T20:39:25;-0.90;99.90
4056;DHT22;2043;52.184;8.690;2023-02-28T20:44:19;-0.80;99.90
4056;DHT22;2043;52.184;8.690;2023-02-28T20:49:13;-0.60;99.80
4056;DHT22;2043;52.184;8.690;2023-02-28T20:51:41;-0.70;99.40
4056;DHT22;2043;52.184;8.690;2023-02-28T21:01:32;-1.30;99.90
4056;DHT22;2043;52.184;8.690;2023-02-28T21:04:01;-1.40;99.90
4056;DHT22;2043;52.184;8.690;2023-02-28T21:06:35;-1.50;99.90
4056;DHT22;2043;52.184;8.690;2023-02-28T21:09:07;-1.40;99.90
4056;DHT22;2043;52.184;8.690;2023-02-28T21:11:35;-1.30;99.90
4056;DHT22;2043;52.184;8.690;2023-02-28T21:14:05;-1.30;99.90
4056;DHT22;2043;52.184;8.690;2023-02-28T21:16:32;-1.30;99.90
4056;DHT22;2043;52.184;8.690;2023-02-28T21:19:03;-1.30;99.90
4056;DHT22;2043;52.184;8.690;2023-02-28T21:21:36;-1.50;99.90
4056;DHT22;2043;52.184;8.690;2023-02-28T21:24:04;-1.50;99.90
4056;DHT22;2043;52.184;8.690;2023-02-28T21:29:00;-1.70;99.90
4056;DHT22;2043;52.184;8.690;2023-02-28T21:31:30;-1.70;99.90
4056;DHT22;2043;52.184;8.690;2023-02-28T21:33:58;-1.70;99.90
4056;DHT22;2043;52.184;8.690;2023-02-28T21:36:27;-1.70;99.90
4056;DHT22;2043;52.184;8.690;2023-02-28T21:39:08;-1.60;99.90
4056;DHT22;2043;52.184;8.690;2023-02-28T21:41:37;-1.80;99.90
4056;DHT22;2043;52.184;8.690;2023-02-28T21:44:04;-1.90;99.90
4056;DHT22;2043;52.184;8.690;2023-02-28T21:48:59;-1.90;99.90
4056;DHT22;2043;52.184;8.690;2023-02-28T21:51:28;-1.90;99.90
4056;DHT22;2043;52.184;8.690;2023-02-28T21:53:59;-1.80;99.90
4056;DHT22;2043;52.184;8.690;2023-02-28T21:56:28;-1.70;99.90
4056;DHT22;2043;52.184;8.690;2023-02-28T21:58:56;-1.70;99.90
4056;DHT22;2043;52.184;8.690;2023-02-28T22:03:58;-1.60;99.90
4056;DHT22;2043;52.184;8.690;2023-02-28T22:06:28;-1.50;99.90
4056;DHT22;2043;52.184;8.690;2023-02-28T22:08:57;-1.50;99.90
4056;DHT22;2043;52.184;8.690;2023-02-28T22:11:25;-1.60;99.90
4056;DHT22;2043;52.184;8.690;2023-02-28T22:13:56;-1.60;99.90
4056;DHT22;2043;52.184;8.690;2023-02-28T22:16:25;-1.50;99.90
4056;DHT22;2043;52.184;8.690;2023-02-28T22:18:57;-1.50;99.90
4056;DHT22;2043;52.184;8.690;2023-02-28T22:21:24;-1.40;99.90
4056;DHT22;2043;52.184;8.690;2023-02-28T22:26:20;-1.30;99.90
4056;DHT22;2043;52.184;8.690;2023-02-28T22:28:48;-1.20;99.90
4056;DHT22;2043;52.184;8.690;2023-02-28T22:33:43;-1.50;99.90
4056;DHT22;2043;52.184;8.690;2023-02-28T22:36:12;-1.60;99.90
4056;DHT22;2043;52.184;8.690;2023-02-28T22:38:47;-1.60;99.90
4056;DHT22;2043;52.184;8.690;2023-02-28T22:41:22;-1.60;99.90
4056;DHT22;2043;52.184;8.690;2023-02-28T22:43:54;-1.60;99.90
4056;DHT22;2043;52.184;8.690;2023-02-28T22:46:22;-1.80;99.90
4056;DHT22;2043;52.184;8.690;2023-02-28T22:48:50;-2.00;99.90
4056;DHT22;2043;52.184;8.690;2023-02-28T22:51:22;-2.10;99.90
4056;DHT22;2043;52.184;8.690;2023-02-28T22:53:50;-2.30;99.90
4056;DHT22;2043;52.184;8.690;2023-02-28T22:56:19;-2.30;99.90
4056;DHT22;2043;52.184;8.690;2023-02-28T22:58:51;-2.30;99.90
4056;DHT22;2043;52.184;8.690;2023-02-28T23:01:19;-2.20;99.90
4056;DHT22;2043;52.184;8.690;2023-02-28T23:03:46;-2.00;99.90
4056;DHT22;2043;52.184;8.690;2023-02-28T23:06:34;-1.90;99.90
4056;DHT22;2043;52.184;8.690;2023-02-28T23:09:05;-2.20;99.90
4056;DHT22;2043;52.184;8.690;2023-02-28T23:11:36;-2.40;99.90
4056;DHT22;2043;52.184;8.690;2023-02-28T23:14:04;-2.50;99.90
4056;DHT22;2043;52.184;8.690;2023-02-28T23:16:34;-2.40;99.90
4056;DHT22;2043;52.184;8.690;2023-02-28T23:19:04;-2.40;99.90
4056;DHT22;2043;52.184;8.690;2023-02-28T23:21:32;-2.60;99.90
4056;DHT22;2043;52.184;8.690;2023-02-28T23:24:01;-2.60;99.90
4056;DHT22;2043;52.184;8.690;2023-02-28T23:26:31;-2.50;99.90
4056;DHT22;2043;52.184;8.690;2023-02-28T23:28:59;-2.50;99.90
4056;DHT22;2043;52.184;8.690;2023-02-28T23:33:55;-2.20;99.90
4056;DHT22;2043;52.184;8.690;2023-02-28T23:36:22;-2.20;99.90
4056;DHT22;2043;52.184;8.690;2023-02-28T23:38:50;-2.30;99.90
4056;DHT22;2043;52.184;8.690;2023-02-28T23:41:18;-2.30;99.90
4056;DHT22;2043;52.184;8.690;2023-02-28T23:46:13;-2.50;99.90
4056;DHT22;2043;52.184;8.690;2023-02-28T23:48:40;-2.50;99.90